Time;durP1;ratioP1;P1;durP2;ratioP2;P2;SDS_P1;SDS_P2;PMS_P1;PMS_P2;Temp;Humidity;BMP_temperature;BMP_pressure;BME280_temperature;BME280_humidity;BME280_pressure;Samples;Min_cycle;Max_cycle;Signal;HPM_P1;HPM_P2
2022/11/04 00:01:05;;;;;;;20.45;9.23;;;10.00;99.90;;;;;;4385149;28;657801;-70
2022/11/04 00:03:53;;;;;;;19.57;9.63;;;9.90;99.90;;;;;;4404402;28;659166;-71
2022/11/04 00:06:42;;;;;;;19.70;9.73;;;9.90;99.90;;;;;;4384006;28;656644;-70
2022/11/04 00:09:30;;;;;;;21.53;9.57;;;9.80;99.90;;;;;;4410567;28;656043;-71
2022/11/04 00:12:24;;;;;;;25.33;11.23;;;9.80;99.90;;;;;;4383914;28;657282;-70
2022/11/04 00:18:16;;;;;;;21.47;10.37;;;9.70;99.90;;;;;;4384271;28;659292;-70
2022/11/04 00:30:20;;;;;;;22.57;11.17;;;9.60;99.90;;;;;;4386312;28;657439;-70
2022/11/04 00:33:24;;;;;;;19.03;9.37;;;9.60;99.90;;;;;;4403946;28;658364;-71
2022/11/04 00:36:11;;;;;;;23.63;9.80;;;9.60;99.90;;;;;;4361294;28;656917;-70
2022/11/04 00:38:58;;;;;;;23.07;10.33;;;9.50;99.90;;;;;;4408248;28;656997;-70
2022/11/04 00:41:47;;;;;;;21.03;9.90;;;9.50;99.90;;;;;;4386581;28;657879;-70
2022/11/04 00:44:34;;;;;;;20.08;10.25;;;9.50;99.90;;;;;;4409977;28;656933;-71
2022/11/04 00:47:21;;;;;;;25.37;10.40;;;9.40;99.90;;;;;;4381451;28;657631;-71
2022/11/04 00:50:09;;;;;;;20.47;10.70;;;9.30;99.90;;;;;;4404337;28;658215;-70
2022/11/04 00:52:59;;;;;;;25.33;10.37;;;9.30;99.90;;;;;;4388703;28;657737;-70
2022/11/04 00:55:46;;;;;;;21.27;10.23;;;9.30;99.90;;;;;;4383723;28;657340;-70
2022/11/04 00:58:35;;;;;;;22.93;10.60;;;9.30;99.90;;;;;;4407866;28;658960;-70
2022/11/04 01:01:22;;;;;;;20.27;9.73;;;9.30;99.90;;;;;;4385035;28;658792;-70
2022/11/04 01:04:09;;;;;;;21.20;9.47;;;9.40;99.90;;;;;;4407209;28;657046;-70
2022/11/04 01:06:56;;;;;;;18.27;9.50;;;9.30;99.90;;;;;;4394151;28;656372;-71
2022/11/04 01:09:43;;;;;;;20.13;9.90;;;9.30;99.90;;;;;;4401444;28;657369;-70
2022/11/04 01:12:30;;;;;;;22.73;9.90;;;9.30;99.90;;;;;;4389599;28;656773;-70
2022/11/04 01:15:19;;;;;;;18.37;9.53;;;9.30;99.90;;;;;;4407567;28;657854;-70
2022/11/04 01:18:06;;;;;;;21.67;9.27;;;9.20;99.90;;;;;;4392477;28;656851;-70
2022/11/04 01:20:53;;;;;;;23.33;9.50;;;9.30;99.90;;;;;;4405446;28;657914;-70
2022/11/04 01:23:41;;;;;;;20.77;9.83;;;9.20;99.90;;;;;;4384521;28;656752;-70
2022/11/04 01:26:28;;;;;;;24.67;10.43;;;9.20;99.90;;;;;;4411607;28;657289;-70
2022/11/04 01:29:15;;;;;;;17.47;9.40;;;9.20;99.90;;;;;;4388595;28;657773;-70
2022/11/04 01:32:04;;;;;;;22.00;9.10;;;9.10;99.90;;;;;;4407922;28;657838;-71
2022/11/04 01:34:51;;;;;;;18.45;9.00;;;9.10;99.90;;;;;;4390580;28;656727;-70
2022/11/04 01:37:38;;;;;;;21.37;9.60;;;9.10;99.90;;;;;;4413554;28;657587;-70
2022/11/04 01:40:25;;;;;;;20.40;9.20;;;9.10;99.90;;;;;;4395283;28;656606;-70
2022/11/04 01:43:13;;;;;;;19.83;8.73;;;9.10;99.90;;;;;;4404840;28;657805;-71
2022/11/04 01:46:01;;;;;;;22.03;9.03;;;9.10;99.90;;;;;;4389084;28;656512;-70
2022/11/04 01:48:49;;;;;;;19.27;9.07;;;9.10;99.90;;;;;;4415315;28;657605;-70
2022/11/04 01:51:37;;;;;;;22.90;8.33;;;9.10;99.90;;;;;;4388706;28;656660;-71
2022/11/04 01:54:24;;;;;;;22.60;9.57;;;9.00;99.90;;;;;;4402872;28;657203;-70
2022/11/04 01:57:14;;;;;;;19.83;8.30;;;9.00;99.90;;;;;;4388621;28;657324;-70
2022/11/04 02:00:02;;;;;;;17.00;8.60;;;9.00;99.90;;;;;;4389987;28;656502;-70
2022/11/04 02:02:54;;;;;;;14.73;7.80;;;9.00;99.90;;;;;;4406077;28;656566;-70
2022/11/04 02:05:43;;;;;;;22.20;8.33;;;8.90;99.90;;;;;;4391004;28;656745;-70
2022/11/04 02:08:30;;;;;;;17.17;8.37;;;9.00;99.90;;;;;;4401460;28;656707;-70
2022/11/04 02:14:18;;;;;;;14.83;7.73;;;9.00;99.90;;;;;;4387411;28;657133;-70
2022/11/04 02:17:11;;;;;;;19.27;7.90;;;9.10;99.90;;;;;;4388922;28;657004;-70
2022/11/04 02:20:37;;;;;;;17.37;7.43;;;9.10;99.90;;;;;;4387217;28;657021;-70
2022/11/04 02:24:00;;;;;;;15.93;7.80;;;9.20;99.90;;;;;;4387414;28;656556;-70
2022/11/04 02:27:24;;;;;;;17.97;7.63;;;9.30;99.90;;;;;;4363968;28;656646;-70
2022/11/04 02:30:13;;;;;;;19.90;7.93;;;9.30;99.90;;;;;;4361378;28;657120;-70
2022/11/04 02:33:07;;;;;;;16.40;8.00;;;9.30;99.90;;;;;;4390374;28;656265;-70
2022/11/04 02:35:58;;;;;;;17.10;7.73;;;9.30;99.90;;;;;;4380470;28;656691;-71
2022/11/04 02:38:49;;;;;;;13.67;7.60;;;9.20;99.90;;;;;;4370331;28;657205;-70
2022/11/04 02:41:39;;;;;;;16.63;6.80;;;9.20;99.90;;;;;;4394281;28;657167;-70
2022/11/04 02:44:29;;;;;;;15.13;7.30;;;9.30;99.90;;;;;;4392353;28;657695;-70
2022/11/04 02:47:19;;;;;;;15.73;7.27;;;9.30;99.90;;;;;;4384675;28;656729;-70
2022/11/04 02:50:09;;;;;;;15.37;7.27;;;9.20;99.90;;;;;;4390852;28;656576;-70
2022/11/04 02:52:59;;;;;;;15.67;7.53;;;9.30;99.90;;;;;;4384704;28;657838;-70
2022/11/04 02:55:47;;;;;;;18.37;7.20;;;9.30;99.90;;;;;;4391667;28;656494;-70
2022/11/04 02:58:37;;;;;;;15.67;6.80;;;9.30;99.90;;;;;;4406637;28;656512;-70
2022/11/04 03:01:25;;;;;;;15.30;7.47;;;9.30;99.90;;;;;;4409605;28;657446;-70
2022/11/04 03:04:14;;;;;;;14.23;6.90;;;9.20;99.90;;;;;;4390490;28;657449;-70
2022/11/04 03:07:01;;;;;;;15.07;7.18;;;9.20;99.90;;;;;;4383730;28;656288;-70
2022/11/04 03:09:52;;;;;;;13.37;6.63;;;9.20;99.90;;;;;;4409385;28;657558;-70
2022/11/04 03:12:40;;;;;;;12.77;6.83;;;9.30;99.90;;;;;;4386408;28;657231;-70
2022/11/04 03:15:29;;;;;;;10.40;6.00;;;9.30;99.90;;;;;;4384670;28;657701;-70
2022/11/04 03:18:20;;;;;;;13.50;6.67;;;9.20;99.90;;;;;;4390974;28;656356;-70
2022/11/04 03:21:10;;;;;;;11.90;6.50;;;9.30;99.90;;;;;;4390418;28;657235;-70
2022/11/04 03:23:57;;;;;;;13.90;6.33;;;9.40;99.90;;;;;;4391501;28;657666;-70
2022/11/04 03:26:47;;;;;;;18.20;7.20;;;9.30;99.90;;;;;;4403788;28;656057;-70
2022/11/04 03:29:36;;;;;;;10.83;6.33;;;9.30;99.90;;;;;;4389775;28;656426;-70
2022/11/04 03:32:25;;;;;;;12.60;6.17;;;9.40;99.90;;;;;;4385855;28;657547;-70
2022/11/04 03:35:12;;;;;;;14.67;5.93;;;9.30;99.90;;;;;;4381265;28;657300;-70
2022/11/04 03:38:00;;;;;;;16.07;7.10;;;9.40;99.90;;;;;;4409429;28;656804;-70
2022/11/04 03:40:48;;;;;;;13.03;6.30;;;9.30;99.90;;;;;;4382791;28;657994;-71
2022/11/04 03:43:35;;;;;;;15.53;6.20;;;9.40;99.90;;;;;;4399997;28;656428;-70
2022/11/04 03:46:24;;;;;;;12.43;6.23;;;9.40;99.90;;;;;;4412370;28;656999;-70
2022/11/04 03:49:11;;;;;;;13.70;5.80;;;9.40;99.90;;;;;;4380966;28;656310;-70
2022/11/04 03:51:58;;;;;;;12.43;5.88;;;9.40;99.90;;;;;;4406045;28;657434;-70
2022/11/04 03:54:47;;;;;;;14.03;6.10;;;9.30;99.90;;;;;;4388451;28;656920;-70
2022/11/04 03:57:37;;;;;;;15.27;6.03;;;9.30;99.90;;;;;;4407054;28;656622;-70
2022/11/04 04:00:24;;;;;;;12.23;5.97;;;9.30;99.90;;;;;;4383623;28;656929;-70
2022/11/04 04:03:13;;;;;;;10.70;5.80;;;9.30;99.90;;;;;;4392265;28;656889;-70
2022/11/04 04:06:03;;;;;;;14.60;5.63;;;9.30;99.90;;;;;;4386229;28;656351;-70
2022/11/04 04:08:53;;;;;;;11.67;6.10;;;9.30;99.90;;;;;;4385465;28;656519;-70
2022/11/04 04:11:44;;;;;;;14.07;6.00;;;9.20;99.90;;;;;;4402072;28;656886;-70
2022/11/04 04:14:39;;;;;;;15.47;5.80;;;9.20;99.90;;;;;;4389090;28;655954;-70
2022/11/04 04:17:28;;;;;;;14.93;6.47;;;9.10;99.90;;;;;;4387669;28;656192;-70
2022/11/04 04:20:17;;;;;;;10.77;5.87;;;9.00;99.90;;;;;;4382505;28;656386;-70
2022/11/04 04:27:29;;;;;;;11.77;6.03;;;8.90;99.90;;;;;;4408949;28;657783;-70
2022/11/04 04:29:20;;;;;;;14.10;5.90;;;8.90;99.90;;;;;;4386648;28;656410;-70
2022/11/04 04:32:08;;;;;;;11.93;6.10;;;8.80;99.90;;;;;;4383798;28;657946;-70
2022/11/04 04:35:40;;;;;;;12.87;6.13;;;8.80;99.90;;;;;;4397556;28;656645;-70
2022/11/04 04:47:23;;;;;;;12.43;6.13;;;8.60;99.90;;;;;;4380286;28;660187;-70
2022/11/04 04:50:11;;;;;;;13.53;6.13;;;8.70;99.90;;;;;;4367698;28;656768;-70
2022/11/04 04:52:58;;;;;;;11.20;5.73;;;8.70;99.90;;;;;;4404507;28;657534;-70
2022/11/04 04:55:45;;;;;;;12.70;6.00;;;8.70;99.90;;;;;;4396464;28;657016;-71
2022/11/04 04:58:33;;;;;;;11.30;5.90;;;8.60;99.90;;;;;;4405518;28;657722;-70
2022/11/04 05:01:20;;;;;;;12.87;6.10;;;8.50;99.90;;;;;;4398504;28;656598;-70
2022/11/04 05:04:09;;;;;;;11.10;6.28;;;8.50;99.90;;;;;;4401661;28;659156;-70
2022/11/04 05:06:56;;;;;;;11.70;5.93;;;8.50;99.90;;;;;;4383607;28;657179;-70
2022/11/04 05:09:43;;;;;;;11.60;5.80;;;8.40;99.90;;;;;;4406447;28;656740;-70
2022/11/04 05:13:24;;;;;;;15.33;6.30;;;8.50;99.90;;;;;;4387153;28;657054;-70
2022/11/04 05:15:38;;;;;;;12.67;6.20;;;8.50;99.90;;;;;;4385818;28;657229;-70
2022/11/04 05:18:25;;;;;;;15.50;5.90;;;8.40;99.90;;;;;;4404517;28;656486;-70
2022/11/04 05:21:15;;;;;;;14.40;5.60;;;8.40;99.90;;;;;;4415964;28;657594;-70
2022/11/04 05:24:02;;;;;;;13.47;6.10;;;8.30;99.90;;;;;;4385304;28;657350;-70
2022/11/04 05:26:49;;;;;;;10.55;5.38;;;8.20;99.90;;;;;;4405586;28;656751;-70
2022/11/04 05:29:36;;;;;;;11.77;5.57;;;8.20;99.90;;;;;;4397137;28;656463;-70
2022/11/04 05:32:23;;;;;;;11.37;5.43;;;8.20;99.90;;;;;;4412168;28;657275;-70
2022/11/04 05:35:11;;;;;;;11.60;5.53;;;8.10;99.90;;;;;;4398314;28;657270;-71
2022/11/04 05:37:59;;;;;;;14.13;5.83;;;8.10;99.90;;;;;;4420793;28;657125;-70
2022/11/04 05:40:46;;;;;;;10.17;5.53;;;8.10;99.90;;;;;;4383749;28;656893;-70
2022/11/04 05:43:34;;;;;;;10.53;5.67;;;8.10;99.90;;;;;;4408805;28;656893;-71
2022/11/04 05:46:21;;;;;;;9.73;5.43;;;8.20;99.90;;;;;;4387743;28;656933;-70
2022/11/04 05:49:09;;;;;;;12.10;5.80;;;8.20;99.90;;;;;;4410317;28;656202;-70
2022/11/04 05:51:56;;;;;;;12.90;6.13;;;8.20;99.90;;;;;;4385864;28;656523;-71
2022/11/04 05:54:44;;;;;;;13.53;6.37;;;8.20;99.90;;;;;;4416225;28;657932;-70
2022/11/04 05:57:31;;;;;;;12.30;5.90;;;8.20;99.90;;;;;;4393263;28;656356;-70
2022/11/04 06:00:19;;;;;;;12.60;5.93;;;8.20;99.90;;;;;;4416416;28;657042;-70
2022/11/04 06:03:06;;;;;;;11.27;6.20;;;8.20;99.90;;;;;;4393641;28;656515;-70
2022/11/04 06:05:53;;;;;;;11.30;5.67;;;8.30;99.90;;;;;;4407022;28;657620;-70
2022/11/04 06:08:40;;;;;;;13.43;6.20;;;8.30;99.90;;;;;;4384627;28;657417;-70
2022/11/04 06:11:29;;;;;;;15.17;6.20;;;8.30;99.90;;;;;;4404467;28;657914;-70
2022/11/04 06:14:16;;;;;;;11.13;5.73;;;8.40;99.90;;;;;;4391831;28;656738;-71
2022/11/04 06:17:04;;;;;;;12.87;6.37;;;8.40;99.90;;;;;;4407888;28;657848;-70
2022/11/04 06:19:51;;;;;;;12.07;5.87;;;8.40;99.90;;;;;;4388335;28;656711;-70
2022/11/04 06:22:38;;;;;;;14.20;6.30;;;8.40;99.90;;;;;;4405781;28;657702;-70
2022/11/04 06:25:25;;;;;;;11.67;6.20;;;8.40;99.90;;;;;;4390968;28;656549;-70
2022/11/04 06:28:14;;;;;;;13.43;6.13;;;8.50;99.90;;;;;;4407619;28;657536;-70
2022/11/04 06:31:02;;;;;;;12.50;6.43;;;8.50;99.90;;;;;;4389985;28;657756;-70
2022/11/04 06:33:50;;;;;;;11.90;5.87;;;8.60;99.90;;;;;;4414488;28;656350;-70
2022/11/04 06:36:37;;;;;;;9.27;5.60;;;8.70;99.90;;;;;;4411298;28;657460;-70
2022/11/04 06:39:24;;;;;;;12.70;6.07;;;8.70;99.90;;;;;;4409668;28;655825;-70
2022/11/04 06:42:11;;;;;;;13.83;6.13;;;8.80;99.90;;;;;;4392217;28;656309;-70
2022/11/04 06:45:00;;;;;;;11.50;5.60;;;8.80;99.90;;;;;;4407747;28;656453;-70
2022/11/04 06:47:47;;;;;;;12.15;6.15;;;8.80;99.90;;;;;;4394133;28;657868;-70
2022/11/04 06:50:34;;;;;;;14.13;5.93;;;8.90;99.90;;;;;;4408520;28;656102;-70
2022/11/04 06:53:22;;;;;;;11.23;5.83;;;9.00;99.90;;;;;;4388994;28;656919;-70
2022/11/04 06:56:09;;;;;;;11.57;5.77;;;9.10;99.90;;;;;;4407978;28;657189;-70
2022/11/04 06:58:56;;;;;;;13.07;6.07;;;9.30;99.90;;;;;;4380801;28;656858;-70
2022/11/04 07:01:45;;;;;;;12.00;5.80;;;9.40;99.90;;;;;;4414240;28;657250;-70
2022/11/04 07:04:32;;;;;;;15.27;5.80;;;9.50;99.90;;;;;;4384817;28;656743;-71
2022/11/04 07:07:19;;;;;;;11.30;5.70;;;9.70;99.90;;;;;;4405557;28;656587;-70
2022/11/04 07:10:07;;;;;;;10.03;5.30;;;9.80;99.90;;;;;;4386477;28;656601;-70
2022/11/04 07:12:54;;;;;;;11.07;5.67;;;9.90;99.90;;;;;;4412229;28;656611;-70
2022/11/04 07:15:41;;;;;;;9.87;5.27;;;10.00;99.90;;;;;;4385770;28;657254;-70
2022/11/04 07:18:30;;;;;;;11.00;5.50;;;10.00;99.90;;;;;;4409983;28;657594;-70
2022/11/04 07:21:17;;;;;;;12.87;5.83;;;10.20;99.90;;;;;;4389044;28;658483;-70
2022/11/04 07:24:04;;;;;;;15.47;5.57;;;10.20;99.90;;;;;;4407142;28;658344;-70
2022/11/04 07:26:54;;;;;;;9.43;5.37;;;10.20;99.90;;;;;;4386353;28;657420;-70
2022/11/04 07:29:41;;;;;;;12.43;5.90;;;10.30;99.90;;;;;;4391638;28;657080;-70
2022/11/04 07:32:28;;;;;;;10.23;5.70;;;10.40;99.90;;;;;;4411725;28;658620;-70
2022/11/04 07:35:17;;;;;;;13.93;5.83;;;10.50;99.90;;;;;;4386412;28;657640;-70
2022/11/04 07:38:04;;;;;;;10.83;5.90;;;10.60;99.90;;;;;;4408519;28;658001;-70
2022/11/04 07:40:51;;;;;;;9.37;5.77;;;10.70;99.90;;;;;;4382956;28;657856;-70
2022/11/04 07:43:38;;;;;;;13.67;5.97;;;10.70;99.90;;;;;;4408018;28;657440;-71
2022/11/04 07:46:26;;;;;;;10.50;5.77;;;10.80;99.90;;;;;;4385398;28;658481;-70
2022/11/04 07:49:13;;;;;;;9.33;5.50;;;10.90;99.90;;;;;;4416286;28;658654;-70
2022/11/04 07:52:02;;;;;;;12.57;6.17;;;10.90;99.90;;;;;;4389947;28;656188;-70
2022/11/04 07:54:49;;;;;;;10.00;5.60;;;10.90;99.90;;;;;;4409922;28;657660;-70
2022/11/04 07:57:37;;;;;;;11.90;5.90;;;10.90;99.90;;;;;;4389231;28;657625;-70
2022/11/04 08:00:24;;;;;;;11.23;5.27;;;11.00;99.90;;;;;;4410067;28;657662;-70
2022/11/04 08:03:11;;;;;;;12.48;6.28;;;11.10;99.90;;;;;;4391262;28;658229;-70
2022/11/04 08:05:59;;;;;;;13.03;5.60;;;11.20;99.90;;;;;;4407327;28;659982;-70
2022/11/04 08:08:48;;;;;;;13.93;5.47;;;11.40;99.90;;;;;;4396874;28;657629;-70
2022/11/04 08:11:35;;;;;;;9.07;4.90;;;11.50;99.90;;;;;;4407563;28;657550;-70
2022/11/04 08:14:22;;;;;;;15.13;5.13;;;11.70;99.90;;;;;;4415207;28;656446;-70
2022/11/04 08:17:10;;;;;;;11.67;5.43;;;11.80;99.90;;;;;;4395523;28;657280;-70
2022/11/04 08:19:57;;;;;;;11.63;5.50;;;12.10;99.90;;;;;;4379889;28;658773;-70
2022/11/04 08:22:44;;;;;;;12.65;5.10;;;12.50;99.90;;;;;;4413724;28;658277;-70
2022/11/04 08:25:33;;;;;;;11.80;5.37;;;12.90;99.90;;;;;;4390976;28;657721;-70
2022/11/04 08:28:20;;;;;;;11.20;5.10;;;13.10;99.90;;;;;;4402156;28;657842;-70
2022/11/04 08:31:09;;;;;;;10.77;5.13;;;13.10;98.90;;;;;;4413759;28;658428;-70
2022/11/04 08:33:56;;;;;;;11.43;5.27;;;13.10;99.80;;;;;;4387185;28;657817;-70
2022/11/04 08:36:43;;;;;;;13.30;5.57;;;13.40;99.50;;;;;;4405161;28;658970;-71
2022/11/04 08:39:30;;;;;;;14.03;5.97;;;13.40;98.20;;;;;;4382928;28;659248;-71
2022/11/04 08:42:19;;;;;;;9.90;5.70;;;13.80;97.30;;;;;;4405523;28;658924;-70
2022/11/04 08:45:07;;;;;;;11.68;6.10;;;13.80;96.50;;;;;;4388477;28;657764;-70
2022/11/04 08:47:54;;;;;;;10.10;5.60;;;14.10;96.70;;;;;;4398326;28;658072;-71
2022/11/04 08:50:41;;;;;;;10.03;5.23;;;14.30;94.70;;;;;;4389463;28;657379;-70
2022/11/04 08:53:29;;;;;;;12.30;6.20;;;14.60;94.00;;;;;;4403679;28;657979;-71
2022/11/04 08:56:18;;;;;;;16.23;6.70;;;15.10;93.40;;;;;;4383568;28;657647;-71
2022/11/04 08:59:07;;;;;;;9.60;5.57;;;15.40;90.90;;;;;;4403984;28;657929;-70
2022/11/04 09:01:54;;;;;;;13.63;5.60;;;16.00;88.30;;;;;;4407407;28;657485;-70
2022/11/04 09:04:41;;;;;;;10.73;5.03;;;16.10;84.50;;;;;;4388331;28;657906;-71
2022/11/04 09:07:29;;;;;;;12.63;4.63;;;16.10;80.80;;;;;;4405503;28;658794;-70
2022/11/04 09:10:16;;;;;;;7.63;4.53;;;16.70;77.50;;;;;;4385885;28;659648;-71
2022/11/04 09:13:03;;;;;;;9.30;4.87;;;17.10;74.40;;;;;;4401618;28;657498;-71
2022/11/04 09:15:52;;;;;;;11.30;4.67;;;16.80;73.60;;;;;;4391601;28;656735;-70
2022/11/04 09:18:39;;;;;;;9.27;4.67;;;16.80;74.80;;;;;;4410451;28;658573;-70
2022/11/04 09:21:27;;;;;;;10.77;4.80;;;16.80;75.40;;;;;;4390794;28;656575;-71
2022/11/04 09:24:14;;;;;;;7.97;4.40;;;16.70;74.70;;;;;;4406873;28;658549;-70
2022/11/04 09:27:01;;;;;;;11.93;4.67;;;16.80;74.20;;;;;;4392136;28;656796;-71
2022/11/04 09:29:48;;;;;;;10.13;4.73;;;16.90;73.40;;;;;;4405674;28;657960;-71
2022/11/04 09:32:37;;;;;;;9.23;4.90;;;17.40;70.60;;;;;;4387627;28;657847;-70
2022/11/04 09:35:26;;;;;;;9.97;5.17;;;17.60;71.60;;;;;;4411352;28;656576;-71
2022/11/04 09:38:13;;;;;;;8.60;4.67;;;17.40;72.30;;;;;;4387729;28;657138;-71
2022/11/04 09:41:00;;;;;;;9.30;4.77;;;17.60;72.70;;;;;;4386101;28;656773;-71
2022/11/04 09:43:51;;;;;;;10.23;4.60;;;17.70;72.20;;;;;;4405049;28;656806;-71
2022/11/04 09:46:38;;;;;;;12.00;4.40;;;17.80;69.90;;;;;;4387654;28;658511;-70
2022/11/04 09:49:27;;;;;;;10.50;4.50;;;18.10;68.00;;;;;;4382763;28;657432;-71
2022/11/04 09:52:17;;;;;;;15.53;5.37;;;18.10;68.40;;;;;;4398305;28;658248;-71
2022/11/04 09:55:07;;;;;;;11.13;4.87;;;18.10;69.00;;;;;;4371876;28;658253;-71
2022/11/04 09:57:55;;;;;;;11.07;4.13;;;18.50;69.80;;;;;;4401167;28;657230;-71
2022/11/04 10:00:43;;;;;;;8.47;3.60;;;18.70;63.20;;;;;;4383167;28;659158;-71
2022/11/04 10:03:40;;;;;;;10.57;4.30;;;18.80;62.50;;;;;;4384083;28;656411;-71
2022/11/04 10:06:37;;;;;;;8.33;4.17;;;18.50;65.00;;;;;;4382960;28;657829;-71
2022/11/04 10:09:35;;;;;;;10.57;4.40;;;18.00;64.80;;;;;;4388642;28;657131;-71
2022/11/04 10:12:33;;;;;;;10.10;4.23;;;17.60;68.10;;;;;;4385592;28;657880;-71
2022/11/04 10:15:32;;;;;;;9.33;4.50;;;17.50;68.00;;;;;;4378215;28;657810;-70
2022/11/04 10:18:29;;;;;;;9.50;3.93;;;17.20;66.50;;;;;;4381748;28;656629;-70
2022/11/04 10:21:21;;;;;;;7.77;4.37;;;17.00;67.20;;;;;;4386030;28;658835;-71
2022/11/04 10:24:17;;;;;;;7.47;4.30;;;16.80;68.50;;;;;;4390587;28;656993;-71
2022/11/04 10:27:05;;;;;;;8.60;4.23;;;16.60;71.00;;;;;;4383437;28;656480;-71
2022/11/04 10:29:53;;;;;;;8.50;4.57;;;16.70;71.90;;;;;;4385602;28;658431;-71
2022/11/04 10:32:47;;;;;;;14.70;4.73;;;16.70;71.70;;;;;;4393435;28;657654;-71
2022/11/04 10:35:36;;;;;;;10.47;4.57;;;16.80;70.50;;;;;;4381802;28;657902;-71
2022/11/04 10:38:33;;;;;;;10.50;4.60;;;16.80;71.20;;;;;;4381012;28;657850;-71
2022/11/04 10:41:26;;;;;;;9.37;5.00;;;17.10;71.50;;;;;;4359818;28;657862;-71
2022/11/04 10:44:16;;;;;;;10.83;4.93;;;17.30;72.80;;;;;;4382303;28;657133;-71
2022/11/04 10:47:09;;;;;;;7.93;4.53;;;17.30;72.40;;;;;;4385137;28;658350;-71
2022/11/04 10:50:17;;;;;;;13.57;5.20;;;17.10;71.00;;;;;;4385589;28;656934;-71
2022/11/04 10:53:12;;;;;;;9.93;4.50;;;16.90;71.20;;;;;;4384186;28;657459;-71
2022/11/04 10:56:02;;;;;;;14.10;4.77;;;16.80;73.20;;;;;;4388724;28;657050;-70
2022/11/04 10:58:51;;;;;;;12.13;4.93;;;16.60;73.20;;;;;;4384168;28;657513;-71
2022/11/04 11:01:38;;;;;;;10.03;4.90;;;16.50;72.90;;;;;;4380949;28;658530;-71
2022/11/04 11:04:27;;;;;;;15.77;4.77;;;16.20;73.60;;;;;;4382781;28;657761;-71
2022/11/04 11:07:21;;;;;;;13.37;4.77;;;16.10;74.40;;;;;;4406506;28;658003;-71
2022/11/04 11:10:16;;;;;;;11.77;4.50;;;16.00;73.30;;;;;;4389014;28;658508;-71
2022/11/04 11:13:05;;;;;;;9.70;4.80;;;15.90;74.40;;;;;;4388485;28;657846;-71
2022/11/04 11:16:05;;;;;;;12.02;5.35;;;15.80;76.10;;;;;;4383922;28;658072;-71
2022/11/04 11:19:09;;;;;;;13.20;5.70;;;15.80;76.30;;;;;;4361682;28;658177;-70
2022/11/04 11:21:57;;;;;;;11.23;5.13;;;15.60;76.70;;;;;;4364796;28;659252;-70
2022/11/04 11:24:45;;;;;;;15.87;5.10;;;15.50;77.70;;;;;;4407870;28;657594;-71
2022/11/04 11:27:32;;;;;;;12.13;5.23;;;15.40;78.60;;;;;;4414142;28;656962;-71
2022/11/04 11:30:27;;;;;;;15.00;5.10;;;15.30;78.50;;;;;;4407391;28;658333;-70
2022/11/04 11:33:18;;;;;;;13.17;5.80;;;15.20;79.60;;;;;;4379526;28;657759;-71
2022/11/04 11:36:10;;;;;;;13.60;5.80;;;15.10;80.40;;;;;;4372472;28;657180;-71
2022/11/04 11:39:04;;;;;;;16.83;6.77;;;15.10;80.50;;;;;;4379642;28;657682;-71
2022/11/04 11:41:54;;;;;;;19.30;7.50;;;15.10;81.10;;;;;;4354680;28;659495;-71
2022/11/04 11:44:43;;;;;;;19.40;7.67;;;15.10;81.10;;;;;;4383841;28;658097;-71
2022/11/04 11:47:36;;;;;;;14.50;6.77;;;15.00;81.00;;;;;;4392682;28;657419;-70
2022/11/04 11:50:30;;;;;;;16.37;6.83;;;15.10;82.60;;;;;;4380613;28;658730;-70
2022/11/04 11:53:18;;;;;;;19.20;7.63;;;15.00;82.20;;;;;;4354344;28;658087;-71
2022/11/04 11:56:21;;;;;;;16.70;6.60;;;15.00;81.90;;;;;;4388474;28;658071;-70
2022/11/04 11:59:14;;;;;;;12.37;5.70;;;15.00;82.10;;;;;;4384773;28;658086;-71
2022/11/04 12:02:12;;;;;;;19.90;5.53;;;15.10;83.10;;;;;;4361802;28;657633;-70
2022/11/04 12:04:59;;;;;;;15.57;5.77;;;15.20;81.30;;;;;;4379097;28;658104;-70
2022/11/04 12:07:50;;;;;;;12.27;5.93;;;15.20;82.90;;;;;;4387882;28;657598;-71
2022/11/04 12:10:41;;;;;;;11.95;6.25;;;15.30;81.30;;;;;;4388044;28;658800;-70
2022/11/04 12:13:30;;;;;;;20.30;6.60;;;15.30;81.70;;;;;;4384119;28;658487;-71
2022/11/04 12:16:23;;;;;;;23.23;6.93;;;15.40;82.70;;;;;;4382240;28;658852;-71
2022/11/04 12:19:19;;;;;;;17.83;7.50;;;15.40;82.20;;;;;;4364693;28;657656;-70
2022/11/04 12:22:12;;;;;;;16.20;7.30;;;15.60;82.50;;;;;;4367936;28;658035;-71
2022/11/04 12:25:05;;;;;;;26.60;9.40;;;15.70;82.30;;;;;;4384937;28;658258;-71
2022/11/04 12:27:55;;;;;;;28.73;9.87;;;15.80;80.40;;;;;;4357835;28;658891;-71
2022/11/04 12:30:48;;;;;;;18.23;8.00;;;15.80;81.50;;;;;;4388022;28;657882;-70
2022/11/04 12:33:37;;;;;;;20.37;7.70;;;15.90;79.20;;;;;;4365149;28;658721;-71
2022/11/04 12:36:36;;;;;;;20.00;7.87;;;16.00;79.50;;;;;;4395230;28;657803;-70
2022/11/04 12:39:30;;;;;;;19.17;8.17;;;16.00;79.20;;;;;;4381551;28;657529;-70
2022/11/04 12:42:22;;;;;;;17.73;7.40;;;15.90;79.60;;;;;;4367149;28;658524;-70
2022/11/04 12:45:18;;;;;;;18.93;7.67;;;15.80;80.40;;;;;;4389709;28;658511;-71
2022/11/04 12:48:07;;;;;;;19.50;7.43;;;15.80;81.20;;;;;;4366124;28;658141;-70
2022/11/04 12:51:01;;;;;;;23.03;6.77;;;15.80;81.90;;;;;;4407101;28;657656;-71
2022/11/04 12:53:54;;;;;;;19.70;6.90;;;15.70;81.20;;;;;;4386079;28;658364;-70
2022/11/04 12:56:41;;;;;;;22.07;7.10;;;15.60;81.60;;;;;;4362788;28;657873;-70
2022/11/04 12:59:50;;;;;;;18.40;7.13;;;15.60;82.60;;;;;;4409779;28;658718;-71
2022/11/04 13:02:40;;;;;;;16.30;7.37;;;15.50;83.80;;;;;;4362539;28;658100;-70
2022/11/04 13:05:37;;;;;;;22.83;6.60;;;15.30;82.60;;;;;;4389325;28;657601;-70
2022/11/04 13:08:28;;;;;;;13.40;6.80;;;15.10;84.10;;;;;;4375162;28;657859;-71
2022/11/04 13:11:23;;;;;;;19.07;7.30;;;15.00;84.80;;;;;;4388483;28;657548;-70
2022/11/04 13:14:15;;;;;;;32.20;11.30;;;14.90;85.70;;;;;;4383275;28;658352;-70
2022/11/04 13:17:04;;;;;;;54.97;19.73;;;14.90;88.00;;;;;;4378586;28;660577;-71
2022/11/04 13:19:52;;;;;;;55.47;18.37;;;14.80;89.10;;;;;;4376035;28;658879;-71
2022/11/04 13:22:41;;;;;;;27.57;11.60;;;14.70;89.80;;;;;;4400921;28;658876;-70
2022/11/04 13:25:30;;;;;;;28.27;10.40;;;14.70;89.10;;;;;;4402311;28;659368;-71
2022/11/04 13:28:19;;;;;;;19.97;8.17;;;14.60;89.60;;;;;;4382616;28;661157;-70
2022/11/04 13:31:11;;;;;;;16.20;6.83;;;14.50;90.00;;;;;;4384700;28;657848;-70
2022/11/04 13:34:02;;;;;;;16.43;7.37;;;14.50;90.00;;;;;;4377057;28;658741;-71
2022/11/04 13:36:52;;;;;;;18.10;7.37;;;14.40;90.40;;;;;;4380817;28;657706;-70
2022/11/04 13:39:40;;;;;;;18.73;7.43;;;14.40;90.70;;;;;;4375466;28;657417;-70
2022/11/04 13:42:48;;;;;;;22.13;7.27;;;14.30;91.00;;;;;;4380531;28;658837;-70
2022/11/04 13:45:35;;;;;;;19.80;8.33;;;14.20;91.60;;;;;;4365720;28;657921;-70
2022/11/04 13:48:23;;;;;;;16.77;7.97;;;14.20;91.80;;;;;;4406104;28;658428;-70
2022/11/04 13:51:12;;;;;;;16.57;8.43;;;14.10;92.60;;;;;;4386111;28;657609;-70
2022/11/04 13:53:59;;;;;;;18.80;8.13;;;14.00;93.00;;;;;;4410098;28;659323;-70
2022/11/04 13:56:46;;;;;;;17.40;8.00;;;13.90;93.80;;;;;;4388631;28;657574;-69
2022/11/04 13:59:34;;;;;;;21.67;8.23;;;13.90;94.30;;;;;;4405286;28;658170;-69
2022/11/04 14:02:42;;;;;;;18.57;8.50;;;13.80;95.40;;;;;;4389579;28;657644;-69
2022/11/04 14:06:02;;;;;;;17.83;8.45;;;13.80;96.50;;;;;;4387249;28;658144;-69
2022/11/04 14:09:22;;;;;;;23.27;7.80;;;13.80;95.60;;;;;;4392391;28;657761;-69
2022/11/04 14:12:33;;;;;;;17.80;7.20;;;13.70;96.50;;;;;;4404090;28;658252;-69
2022/11/04 14:15:58;;;;;;;21.13;7.33;;;13.70;95.40;;;;;;4370975;28;658180;-69
2022/11/04 14:18:46;;;;;;;17.80;7.73;;;13.70;95.90;;;;;;4368496;28;657911;-69
2022/11/04 14:21:33;;;;;;;22.13;7.57;;;13.70;97.00;;;;;;4406225;28;658670;-69
2022/11/04 14:24:21;;;;;;;13.90;7.33;;;13.70;99.90;;;;;;4389135;28;658216;-69
2022/11/04 14:27:22;;;;;;;18.70;7.90;;;13.50;99.90;;;;;;4418024;28;658576;-69
2022/11/04 14:30:34;;;;;;;21.70;8.67;;;13.40;99.90;;;;;;4381255;28;658913;-69
2022/11/04 14:33:31;;;;;;;16.80;8.30;;;13.20;99.90;;;;;;4384006;28;657277;-69
2022/11/04 14:36:30;;;;;;;26.60;10.90;;;13.10;99.90;;;;;;4386799;28;659094;-70
2022/11/04 14:39:22;;;;;;;36.73;12.63;;;13.00;99.90;;;;;;4362240;28;659086;-70
2022/11/04 14:42:12;;;;;;;35.70;13.27;;;12.90;99.90;;;;;;4384275;28;659268;-70
2022/11/04 14:44:59;;;;;;;41.75;18.73;;;12.80;99.90;;;;;;4411724;28;659342;-70
2022/11/04 14:47:50;;;;;;;114.10;38.87;;;12.80;99.90;;;;;;4384771;28;658874;-70
2022/11/04 14:50:37;;;;;;;159.83;58.27;;;12.70;99.90;;;;;;4381742;28;660978;-69
2022/11/04 14:53:28;;;;;;;163.57;60.80;;;12.70;99.90;;;;;;4412208;28;659462;-69
2022/11/04 14:56:17;;;;;;;111.13;42.77;;;12.60;99.90;;;;;;4367774;28;659804;-69